Time;durP1;ratioP1;P1;durP2;ratioP2;P2;SDS_P1;SDS_P2;PMS_P1;PMS_P2;Temp;Humidity;BMP_temperature;BMP_pressure;BME280_temperature;BME280_humidity;BME280_pressure;Samples;Min_cycle;Max_cycle;Signal;HPM_P1;HPM_P2
2023/09/22 00:00:32;;;;;;;4.50;2.70;;;14.00;99.90;;;;;;4249946;27;20039;-81
2023/09/22 00:02:34;;;;;;;5.18;2.53;;;14.00;99.90;;;;;;4249862;27;20066;-81
2023/09/22 00:04:35;;;;;;;5.82;2.70;;;14.00;99.90;;;;;;4248570;27;20055;-81
2023/09/22 00:06:36;;;;;;;5.75;2.70;;;14.00;99.90;;;;;;4243300;27;20055;-81
2023/09/22 00:08:36;;;;;;;3.40;2.40;;;14.00;99.90;;;;;;4266594;27;20062;-81
2023/09/22 00:10:37;;;;;;;3.83;2.38;;;14.00;99.90;;;;;;4266682;27;20494;-81
2023/09/22 00:12:38;;;;;;;3.38;2.30;;;14.00;99.90;;;;;;4266058;27;20113;-81
2023/09/22 00:14:39;;;;;;;3.50;2.53;;;14.10;99.90;;;;;;4266819;27;20550;-81
2023/09/22 00:16:40;;;;;;;3.65;2.10;;;14.10;99.90;;;;;;4266720;27;20122;-81
2023/09/22 00:18:41;;;;;;;3.63;2.60;;;14.10;99.90;;;;;;4266735;27;20038;-81
2023/09/22 00:20:42;;;;;;;5.03;2.28;;;14.10;99.90;;;;;;4248072;27;20483;-81
2023/09/22 00:22:44;;;;;;;3.40;2.10;;;14.10;99.90;;;;;;4259068;27;20040;-81
2023/09/22 00:24:46;;;;;;;2.53;1.92;;;14.10;99.90;;;;;;4258042;27;20451;-81
2023/09/22 00:26:47;;;;;;;3.45;2.25;;;14.10;99.90;;;;;;4248874;27;20046;-81
2023/09/22 00:28:48;;;;;;;3.35;1.90;;;14.10;99.90;;;;;;4248944;27;20504;-81
2023/09/22 00:30:48;;;;;;;3.28;1.90;;;14.00;99.90;;;;;;4249117;27;20035;-81
2023/09/22 00:32:49;;;;;;;2.65;1.65;;;14.10;99.90;;;;;;4248838;27;20108;-81
2023/09/22 00:34:50;;;;;;;4.97;1.98;;;14.10;99.90;;;;;;4248628;27;20479;-81
2023/09/22 00:36:56;;;;;;;3.17;1.77;;;14.10;99.90;;;;;;4248849;27;20035;-81
2023/09/22 00:38:57;;;;;;;3.10;1.67;;;14.10;99.90;;;;;;4249289;27;20054;-81
2023/09/22 00:40:57;;;;;;;5.57;2.22;;;14.00;99.90;;;;;;4230838;28;20054;-81
2023/09/22 00:43:11;;;;;;;3.72;1.75;;;14.00;99.90;;;;;;4248120;27;20043;-81
2023/09/22 00:45:14;;;;;;;2.85;1.90;;;14.00;99.90;;;;;;4248940;27;20039;-81
2023/09/22 00:47:17;;;;;;;4.63;1.80;;;14.00;99.90;;;;;;4248803;27;20088;-81
2023/09/22 00:49:18;;;;;;;5.50;2.50;;;14.00;99.90;;;;;;4248666;27;20043;-81
2023/09/22 00:51:19;;;;;;;2.83;1.70;;;14.00;99.90;;;;;;4248796;27;20411;-81
2023/09/22 00:53:22;;;;;;;2.85;1.80;;;14.00;99.90;;;;;;4249010;27;20479;-81
2023/09/22 00:55:23;;;;;;;3.85;2.20;;;14.00;99.90;;;;;;4246863;27;20036;-81
2023/09/22 00:57:25;;;;;;;3.30;1.70;;;14.00;99.90;;;;;;4259289;27;20380;-81
2023/09/22 00:59:26;;;;;;;3.60;2.10;;;14.00;99.90;;;;;;4248141;27;20054;-81
2023/09/22 01:01:27;;;;;;;4.07;1.80;;;14.00;99.90;;;;;;4230470;28;20051;-81
2023/09/22 01:03:29;;;;;;;2.40;1.90;;;14.00;99.90;;;;;;4248924;27;20070;-81
2023/09/22 01:05:33;;;;;;;2.67;1.95;;;13.90;99.90;;;;;;4248376;27;20053;-81
2023/09/22 01:07:34;;;;;;;9.25;3.05;;;14.00;99.90;;;;;;4248790;27;20471;-81
2023/09/22 01:09:37;;;;;;;5.78;2.90;;;14.00;99.90;;;;;;4248366;27;20054;-81
2023/09/22 01:11:39;;;;;;;4.55;2.10;;;14.00;99.90;;;;;;4230748;28;20047;-81
2023/09/22 01:13:42;;;;;;;4.10;2.20;;;14.00;99.90;;;;;;4248430;27;20122;-81
2023/09/22 01:15:43;;;;;;;5.25;3.03;;;14.00;99.90;;;;;;4247171;27;20449;-81
2023/09/22 01:17:44;;;;;;;5.63;3.10;;;14.00;99.90;;;;;;4256245;27;20397;-81
2023/09/22 01:19:45;;;;;;;4.57;2.85;;;14.00;99.90;;;;;;4248364;27;20049;-81
2023/09/22 01:21:48;;;;;;;5.25;2.70;;;14.00;99.90;;;;;;4231892;27;20047;-81
2023/09/22 01:23:48;;;;;;;9.00;3.80;;;14.00;99.90;;;;;;4248169;27;20047;-81
2023/09/22 01:25:50;;;;;;;6.80;3.78;;;14.00;99.90;;;;;;4248244;27;20114;-81
2023/09/22 01:27:50;;;;;;;8.70;4.38;;;13.90;99.90;;;;;;4247840;27;20502;-81
2023/09/22 01:29:51;;;;;;;10.15;4.28;;;14.00;99.90;;;;;;4247886;27;20043;-81
2023/09/22 01:31:52;;;;;;;9.95;4.30;;;13.90;99.90;;;;;;4248284;27;20403;-81
2023/09/22 01:33:54;;;;;;;11.50;4.80;;;14.00;99.90;;;;;;4229971;28;20055;-81
2023/09/22 01:35:55;;;;;;;11.23;5.72;;;13.90;99.90;;;;;;4248050;27;20088;-82
2023/09/22 01:38:10;;;;;;;10.27;5.43;;;14.00;99.90;;;;;;4247577;27;20471;-81
2023/09/22 01:40:13;;;;;;;8.98;5.15;;;14.00;99.90;;;;;;4248238;27;20436;-81
2023/09/22 01:42:14;;;;;;;9.15;5.43;;;14.00;99.90;;;;;;4248072;27;20050;-81
2023/09/22 01:44:15;;;;;;;13.35;5.88;;;13.90;99.90;;;;;;4248223;27;20118;-81
2023/09/22 01:46:15;;;;;;;12.77;6.28;;;13.90;99.90;;;;;;4248362;27;20043;-81
2023/09/22 01:48:17;;;;;;;11.90;6.10;;;13.90;99.90;;;;;;4252639;27;20039;-81
2023/09/22 01:50:18;;;;;;;13.02;6.82;;;13.90;99.90;;;;;;4248928;27;20087;-81
2023/09/22 01:52:19;;;;;;;14.48;6.70;;;13.90;99.90;;;;;;4248135;27;20450;-81
2023/09/22 01:54:20;;;;;;;12.73;6.28;;;13.90;99.90;;;;;;4247700;27;20092;-81
2023/09/22 01:56:21;;;;;;;15.38;7.20;;;13.80;99.90;;;;;;4248168;27;20498;-81
2023/09/22 01:58:22;;;;;;;14.43;7.15;;;13.80;99.90;;;;;;4247792;28;20074;-81
2023/09/22 02:00:22;;;;;;;15.77;7.78;;;13.80;99.90;;;;;;4248229;28;20039;-81
2023/09/22 02:02:23;;;;;;;16.60;7.72;;;13.80;99.90;;;;;;4248058;28;20135;-81
2023/09/22 02:04:24;;;;;;;14.75;7.43;;;13.80;99.90;;;;;;4248037;28;20047;-81
2023/09/22 02:06:25;;;;;;;17.80;8.43;;;13.80;99.90;;;;;;4251271;27;20043;-82
2023/09/22 02:08:26;;;;;;;18.20;8.00;;;13.80;99.90;;;;;;4264743;27;20399;-82
2023/09/22 02:10:26;;;;;;;16.10;7.78;;;13.80;99.90;;;;;;4222788;28;20055;-82
2023/09/22 02:12:27;;;;;;;19.65;9.05;;;13.80;99.90;;;;;;4247564;28;20043;-82
2023/09/22 02:14:28;;;;;;;17.48;8.80;;;13.90;99.90;;;;;;4247970;28;20043;-82
2023/09/22 02:16:31;;;;;;;16.92;8.40;;;13.90;99.90;;;;;;4247695;28;20078;-82
2023/09/22 02:18:32;;;;;;;20.23;10.00;;;13.90;99.90;;;;;;4248041;28;20043;-82
2023/09/22 02:20:33;;;;;;;18.23;9.48;;;14.00;99.90;;;;;;4247703;28;20053;-81
2023/09/22 02:22:33;;;;;;;22.92;11.05;;;14.00;99.90;;;;;;4243404;28;20035;-81
2023/09/22 02:24:34;;;;;;;19.65;9.70;;;14.00;99.90;;;;;;4256499;27;20449;-82
2023/09/22 02:26:35;;;;;;;22.15;10.85;;;14.00;99.90;;;;;;4247583;28;20399;-82
2023/09/22 02:28:37;;;;;;;22.08;9.82;;;14.00;99.90;;;;;;4247232;28;20046;-81
2023/09/22 02:30:39;;;;;;;22.50;10.23;;;14.00;99.90;;;;;;4247596;28;20139;-83
2023/09/22 02:32:41;;;;;;;21.20;11.10;;;14.00;99.90;;;;;;4228031;28;20470;-81
2023/09/22 02:34:41;;;;;;;19.63;10.52;;;14.00;99.90;;;;;;4235741;28;20123;-82
2023/09/22 02:36:43;;;;;;;20.50;11.13;;;14.00;99.90;;;;;;4259526;27;20035;-81
2023/09/22 02:38:44;;;;;;;22.67;10.57;;;14.00;99.90;;;;;;4228910;28;20066;-81
2023/09/22 02:40:45;;;;;;;22.70;10.95;;;14.00;99.90;;;;;;4228990;28;20115;-81
2023/09/22 02:42:46;;;;;;;21.15;10.88;;;14.00;99.90;;;;;;4247393;28;20082;-81
2023/09/22 02:44:46;;;;;;;19.80;9.68;;;14.00;99.90;;;;;;4247074;28;20484;-81
2023/09/22 02:46:47;;;;;;;21.63;10.68;;;14.10;99.90;;;;;;4240035;28;20081;-81
2023/09/22 02:48:48;;;;;;;19.52;10.02;;;14.10;99.90;;;;;;4262357;27;20039;-81
2023/09/22 02:50:49;;;;;;;22.13;11.32;;;14.10;99.90;;;;;;4228803;28;20062;-81
2023/09/22 02:52:50;;;;;;;21.33;10.98;;;14.10;99.90;;;;;;4262222;27;20045;-81
2023/09/22 02:54:54;;;;;;;23.38;11.90;;;14.10;99.90;;;;;;4254562;27;20034;-81
2023/09/22 02:56:55;;;;;;;21.90;10.82;;;14.10;99.90;;;;;;4247606;28;20039;-81
2023/09/22 02:58:56;;;;;;;22.08;11.80;;;14.10;99.90;;;;;;4247482;28;20513;-81
2023/09/22 03:00:57;;;;;;;23.80;11.73;;;14.20;99.90;;;;;;4228869;28;20054;-81
2023/09/22 03:02:58;;;;;;;26.63;12.07;;;14.20;99.90;;;;;;4257233;27;20070;-82
2023/09/22 03:05:01;;;;;;;22.60;10.88;;;14.20;99.90;;;;;;4255928;27;20486;-82
2023/09/22 03:07:02;;;;;;;21.55;11.13;;;14.20;99.90;;;;;;4256806;27;20059;-82
2023/09/22 03:09:06;;;;;;;24.20;12.05;;;14.20;99.90;;;;;;4264524;27;20494;-82
2023/09/22 03:11:07;;;;;;;21.52;11.38;;;14.20;99.90;;;;;;4267841;27;20047;-81
2023/09/22 03:13:08;;;;;;;22.02;11.10;;;14.20;99.90;;;;;;4237829;27;20043;-82
2023/09/22 03:15:09;;;;;;;24.35;12.35;;;14.20;99.90;;;;;;4250458;27;20035;-82
2023/09/22 03:17:13;;;;;;;26.02;12.40;;;14.30;99.90;;;;;;4253645;27;20083;-81
2023/09/22 03:19:14;;;;;;;22.08;10.85;;;14.30;99.90;;;;;;4267462;27;20050;-81
2023/09/22 03:21:15;;;;;;;22.02;10.75;;;14.20;99.90;;;;;;4267570;27;20047;-81
2023/09/22 03:23:17;;;;;;;19.73;10.90;;;14.30;99.90;;;;;;4267533;27;20504;-81
2023/09/22 03:25:17;;;;;;;22.25;11.57;;;14.20;99.90;;;;;;4249214;27;20510;-81
2023/09/22 03:27:19;;;;;;;23.85;11.00;;;14.20;99.90;;;;;;4248890;27;20084;-81
2023/09/22 03:29:20;;;;;;;21.80;10.15;;;14.30;99.90;;;;;;4264765;27;20159;-81
2023/09/22 03:31:21;;;;;;;19.92;9.70;;;14.30;99.90;;;;;;4257358;27;20046;-81
2023/09/22 03:33:22;;;;;;;19.13;10.10;;;14.30;99.90;;;;;;4249969;27;20082;-81
2023/09/22 03:35:22;;;;;;;20.85;10.13;;;14.20;99.90;;;;;;4249821;27;20085;-80
2023/09/22 03:37:28;;;;;;;17.67;9.95;;;14.20;99.90;;;;;;4248191;27;20395;-80
2023/09/22 03:39:30;;;;;;;18.77;10.27;;;14.20;99.90;;;;;;4251338;27;20492;-81
2023/09/22 03:41:35;;;;;;;19.58;10.35;;;14.20;99.90;;;;;;4255488;27;20425;-81
2023/09/22 03:43:35;;;;;;;17.23;8.90;;;14.10;99.90;;;;;;4250807;27;20544;-81
2023/09/22 03:45:37;;;;;;;16.75;9.20;;;14.10;99.90;;;;;;4251048;27;20027;-81
2023/09/22 03:47:41;;;;;;;17.73;9.05;;;14.10;99.90;;;;;;4253402;27;20122;-81
2023/09/22 03:49:42;;;;;;;17.48;9.25;;;14.10;99.90;;;;;;4232289;28;20047;-80
2023/09/22 03:51:43;;;;;;;19.63;9.43;;;14.00;99.90;;;;;;4250182;27;20398;-81
2023/09/22 03:53:45;;;;;;;15.55;8.57;;;14.00;99.90;;;;;;4250027;27;20421;-81
2023/09/22 03:55:46;;;;;;;16.75;8.07;;;13.90;99.90;;;;;;4249449;27;20041;-82
2023/09/22 03:57:47;;;;;;;18.05;9.25;;;13.90;99.90;;;;;;4232058;28;20582;-81
2023/09/22 03:59:49;;;;;;;13.52;7.85;;;13.90;99.90;;;;;;4231858;28;20047;-81
2023/09/22 04:01:51;;;;;;;16.73;7.68;;;14.00;99.90;;;;;;4247538;27;20046;-81
2023/09/22 04:03:51;;;;;;;15.55;7.18;;;13.80;99.90;;;;;;4242680;27;20076;-81
2023/09/22 04:05:53;;;;;;;14.60;7.63;;;13.80;99.90;;;;;;4232577;28;20036;-81
2023/09/22 04:07:54;;;;;;;15.13;7.88;;;13.70;99.90;;;;;;4232697;28;20403;-81
2023/09/22 04:09:56;;;;;;;16.65;8.07;;;13.70;99.90;;;;;;4214886;28;20142;-81
2023/09/22 04:11:57;;;;;;;16.73;8.07;;;13.70;99.90;;;;;;4233895;28;20500;-81
2023/09/22 04:13:58;;;;;;;14.48;8.02;;;13.70;99.90;;;;;;4232928;28;20051;-81
2023/09/22 04:16:01;;;;;;;15.98;8.32;;;13.70;99.90;;;;;;4232045;28;20471;-81
2023/09/22 04:18:02;;;;;;;18.67;8.77;;;13.80;99.90;;;;;;4232519;28;20088;-82
2023/09/22 04:20:07;;;;;;;17.75;8.43;;;13.80;99.90;;;;;;4214259;28;20072;-81
2023/09/22 04:22:11;;;;;;;20.48;9.48;;;13.80;99.90;;;;;;4244587;27;20368;-81
2023/09/22 04:24:12;;;;;;;21.05;9.55;;;13.80;99.90;;;;;;4254168;27;20052;-81
2023/09/22 04:26:14;;;;;;;17.33;8.63;;;13.80;99.90;;;;;;4248837;27;20047;-81
2023/09/22 04:28:21;;;;;;;17.00;8.80;;;13.70;99.90;;;;;;4230378;28;20126;-81
2023/09/22 04:30:24;;;;;;;17.15;8.80;;;13.70;99.90;;;;;;4213759;28;20096;-81
2023/09/22 04:32:27;;;;;;;19.83;8.27;;;13.70;99.90;;;;;;4248926;27;20035;-82
2023/09/22 04:34:28;;;;;;;17.65;8.65;;;13.70;99.90;;;;;;4248684;27;20039;-81
2023/09/22 04:36:30;;;;;;;18.05;8.40;;;13.70;99.90;;;;;;4249312;27;20440;-81
2023/09/22 04:38:31;;;;;;;18.70;8.93;;;13.70;99.90;;;;;;4248991;27;20043;-81
2023/09/22 04:40:38;;;;;;;20.55;8.70;;;13.70;99.90;;;;;;4249111;27;20473;-82
2023/09/22 04:42:39;;;;;;;17.65;8.82;;;14.80;99.90;;;;;;4248599;27;20451;-82
2023/09/22 04:44:39;;;;;;;17.90;8.30;;;13.70;99.90;;;;;;4248975;27;20054;-81
2023/09/22 04:46:40;;;;;;;18.67;8.73;;;13.70;99.90;;;;;;4249291;27;20088;-82
2023/09/22 04:48:42;;;;;;;19.85;8.35;;;13.70;99.90;;;;;;4248776;27;20050;-82
2023/09/22 04:50:42;;;;;;;18.02;8.25;;;13.70;99.90;;;;;;4248588;27;20384;-82
2023/09/22 04:52:45;;;;;;;17.92;8.10;;;13.70;99.90;;;;;;4252422;27;20050;-82
2023/09/22 04:54:46;;;;;;;20.00;8.50;;;13.70;99.90;;;;;;4250931;27;20049;-81
2023/09/22 04:56:47;;;;;;;17.65;8.18;;;13.70;99.90;;;;;;4248846;27;20118;-83
2023/09/22 04:58:50;;;;;;;17.35;7.80;;;13.70;99.90;;;;;;4248941;27;20099;-81
2023/09/22 05:00:57;;;;;;;19.92;8.73;;;13.70;99.90;;;;;;4249892;27;20114;-82
2023/09/22 05:02:59;;;;;;;18.50;8.50;;;13.70;99.90;;;;;;4259325;27;20047;-81
2023/09/22 05:05:01;;;;;;;17.55;8.55;;;13.70;99.90;;;;;;4275629;27;20055;-81
2023/09/22 05:07:01;;;;;;;18.60;8.68;;;13.70;99.90;;;;;;4267158;27;20486;-81
2023/09/22 05:09:03;;;;;;;23.23;10.10;;;13.70;99.90;;;;;;4266803;27;20041;-81
2023/09/22 05:11:08;;;;;;;16.50;8.50;;;13.70;99.90;;;;;;4266394;27;20106;-81
2023/09/22 05:13:08;;;;;;;24.73;9.82;;;13.70;99.90;;;;;;4266653;27;20046;-82
2023/09/22 05:15:09;;;;;;;22.90;11.10;;;13.70;99.90;;;;;;4266452;27;20073;-81
2023/09/22 05:17:11;;;;;;;22.25;11.07;;;13.70;99.90;;;;;;4266190;27;20383;-82
2023/09/22 05:19:11;;;;;;;26.85;10.77;;;13.70;99.90;;;;;;4257689;27;20038;-82
2023/09/22 05:21:12;;;;;;;21.98;9.23;;;13.70;99.90;;;;;;4236853;27;20073;-82
2023/09/22 05:23:13;;;;;;;20.98;10.32;;;13.70;99.90;;;;;;4248465;27;20483;-82
2023/09/22 05:25:15;;;;;;;22.67;11.43;;;13.70;99.90;;;;;;4247708;27;20104;-82
2023/09/22 05:27:16;;;;;;;21.83;11.05;;;13.70;99.90;;;;;;4235998;27;20476;-82
2023/09/22 05:29:16;;;;;;;24.20;11.30;;;13.70;99.90;;;;;;4248006;27;20043;-82
2023/09/22 05:31:19;;;;;;;22.30;11.15;;;13.70;99.90;;;;;;4248091;27;20043;-82
2023/09/22 05:33:19;;;;;;;22.27;11.18;;;13.60;99.90;;;;;;4247240;27;20471;-82
2023/09/22 05:35:20;;;;;;;21.33;10.05;;;13.60;99.90;;;;;;4248079;27;20043;-81
2023/09/22 05:37:22;;;;;;;23.30;10.57;;;13.70;99.90;;;;;;4248333;27;20407;-81
2023/09/22 05:39:23;;;;;;;23.23;10.73;;;13.60;99.90;;;;;;4248440;27;20043;-81
2023/09/22 05:41:24;;;;;;;22.98;11.10;;;13.60;99.90;;;;;;4248434;27;20126;-81
2023/09/22 05:43:25;;;;;;;19.90;10.10;;;13.60;99.90;;;;;;4229871;28;20048;-81
2023/09/22 05:45:26;;;;;;;19.10;9.57;;;13.60;99.90;;;;;;4229986;28;20048;-81
2023/09/22 05:47:27;;;;;;;17.95;9.07;;;14.80;99.90;;;;;;4247997;27;20043;-81
2023/09/22 05:49:29;;;;;;;23.23;10.13;;;13.60;99.90;;;;;;4245916;27;20042;-81
2023/09/22 05:51:32;;;;;;;19.45;10.88;;;13.60;99.90;;;;;;4254513;27;20043;-81
2023/09/22 05:53:34;;;;;;;23.33;9.82;;;13.60;99.90;;;;;;4229786;28;20044;-81
2023/09/22 05:55:36;;;;;;;19.83;10.18;;;13.60;99.90;;;;;;4247335;27;20037;-81
2023/09/22 05:57:36;;;;;;;22.85;10.82;;;13.50;99.90;;;;;;4247901;27;20035;-81
2023/09/22 05:59:37;;;;;;;23.80;10.73;;;13.50;99.90;;;;;;4229005;28;20059;-81
2023/09/22 06:01:38;;;;;;;27.55;10.77;;;13.50;99.90;;;;;;4235826;28;20050;-81
2023/09/22 06:03:41;;;;;;;17.70;9.48;;;13.50;99.90;;;;;;4247792;28;20050;-81
2023/09/22 06:05:42;;;;;;;21.02;10.43;;;13.50;99.90;;;;;;4229283;28;20125;-81
2023/09/22 06:07:43;;;;;;;20.98;10.07;;;13.50;99.90;;;;;;4242305;28;20051;-81
2023/09/22 06:09:45;;;;;;;22.42;10.90;;;13.50;99.90;;;;;;4247562;28;20902;-81
2023/09/22 06:11:46;;;;;;;21.48;10.27;;;13.40;99.90;;;;;;4247768;28;20046;-81
2023/09/22 06:13:47;;;;;;;20.75;10.02;;;13.50;99.90;;;;;;4247511;28;20051;-81
2023/09/22 06:15:48;;;;;;;25.50;11.43;;;13.50;99.90;;;;;;4247803;28;20594;-81
2023/09/22 06:17:49;;;;;;;26.67;10.60;;;13.50;99.90;;;;;;4246954;28;20047;-81
2023/09/22 06:19:50;;;;;;;24.77;11.20;;;13.50;99.90;;;;;;4247832;27;20066;-81
2023/09/22 06:21:50;;;;;;;22.83;10.73;;;13.50;99.90;;;;;;4247393;28;20047;-81
2023/09/22 06:23:51;;;;;;;25.48;11.68;;;13.50;99.90;;;;;;4247251;28;20438;-81
2023/09/22 06:25:54;;;;;;;23.20;11.52;;;13.50;99.90;;;;;;4247743;28;20084;-81
2023/09/22 06:27:55;;;;;;;23.27;10.57;;;13.50;99.90;;;;;;4247588;28;20051;-81
2023/09/22 06:29:55;;;;;;;26.13;11.18;;;13.50;99.90;;;;;;4247227;28;20062;-81
2023/09/22 06:31:57;;;;;;;24.52;11.60;;;13.50;99.90;;;;;;4247872;28;20045;-84
2023/09/22 06:33:59;;;;;;;23.77;10.70;;;13.50;99.90;;;;;;4229748;28;20036;-84
2023/09/22 06:36:03;;;;;;;30.70;12.10;;;13.50;99.90;;;;;;4247770;28;20043;-80
2023/09/22 06:38:06;;;;;;;24.13;11.02;;;13.50;99.90;;;;;;4229542;28;20051;-81
2023/09/22 06:40:11;;;;;;;25.05;11.80;;;13.60;99.90;;;;;;4230493;28;20063;-78
2023/09/22 06:42:12;;;;;;;24.83;10.90;;;13.60;99.90;;;;;;4247620;27;20047;-80
2023/09/22 06:44:13;;;;;;;27.83;12.05;;;13.50;99.90;;;;;;4241300;27;20062;-79
2023/09/22 06:46:16;;;;;;;21.55;10.70;;;13.50;99.90;;;;;;4250983;27;20047;-80
2023/09/22 06:48:17;;;;;;;21.63;11.07;;;13.60;99.90;;;;;;4242466;27;20043;-82
2023/09/22 06:50:19;;;;;;;23.77;11.48;;;13.50;99.90;;;;;;4227063;27;20523;-82
2023/09/22 06:52:20;;;;;;;25.38;11.23;;;13.60;99.90;;;;;;4215432;28;20510;-82
2023/09/22 06:54:20;;;;;;;25.77;12.57;;;13.70;99.90;;;;;;4232202;28;20142;-82
2023/09/22 06:56:21;;;;;;;24.92;11.77;;;13.60;99.90;;;;;;4238770;27;20035;-81
2023/09/22 06:58:22;;;;;;;24.67;11.82;;;13.70;99.90;;;;;;4249175;27;20490;-81
2023/09/22 07:00:27;;;;;;;23.63;11.57;;;13.70;99.90;;;;;;4238977;27;20038;-81
2023/09/22 07:02:28;;;;;;;24.73;12.23;;;13.80;99.90;;;;;;4250885;27;20035;-81
2023/09/22 07:04:32;;;;;;;22.83;11.18;;;13.80;99.90;;;;;;4231719;27;20052;-81
2023/09/22 07:06:33;;;;;;;21.50;11.30;;;13.80;99.90;;;;;;4250160;27;20107;-81
2023/09/22 07:08:34;;;;;;;21.52;10.30;;;13.80;99.90;;;;;;4232358;28;20404;-81
2023/09/22 07:10:35;;;;;;;21.88;9.90;;;14.00;99.90;;;;;;4250403;27;20054;-80
2023/09/22 07:12:41;;;;;;;21.80;10.65;;;13.80;99.90;;;;;;4231688;28;20047;-81
2023/09/22 07:14:42;;;;;;;23.00;10.40;;;13.80;99.90;;;;;;4250634;27;20047;-80
2023/09/22 07:16:42;;;;;;;20.45;10.13;;;13.80;99.90;;;;;;4250464;27;20570;-80
2023/09/22 07:18:43;;;;;;;23.38;10.80;;;13.90;99.90;;;;;;4250572;27;20047;-80
2023/09/22 07:20:46;;;;;;;21.92;10.45;;;13.90;99.90;;;;;;4250202;27;20062;-82
2023/09/22 07:22:47;;;;;;;21.48;10.70;;;13.90;99.90;;;;;;4249977;27;20449;-82
2023/09/22 07:24:51;;;;;;;25.52;10.50;;;13.90;99.90;;;;;;4250606;27;20043;-82
2023/09/22 07:26:51;;;;;;;21.30;9.82;;;13.90;99.90;;;;;;4231822;28;20611;-82
2023/09/22 07:28:52;;;;;;;22.20;10.52;;;13.90;99.90;;;;;;4250384;27;20047;-82
2023/09/22 07:30:54;;;;;;;22.90;10.02;;;13.90;99.90;;;;;;4250342;27;20155;-82
2023/09/22 07:32:55;;;;;;;17.20;9.68;;;13.90;99.90;;;;;;4231095;28;20100;-82
2023/09/22 07:34:56;;;;;;;20.27;9.68;;;13.90;99.90;;;;;;4250376;27;20047;-82
2023/09/22 07:36:57;;;;;;;17.70;8.40;;;13.90;99.90;;;;;;4231938;28;20117;-82
2023/09/22 07:38:58;;;;;;;20.02;8.40;;;13.90;99.90;;;;;;4250312;27;20090;-82
2023/09/22 07:40:59;;;;;;;17.60;8.77;;;13.90;99.90;;;;;;4233328;28;20058;-83
2023/09/22 07:43:00;;;;;;;16.08;7.85;;;13.90;99.90;;;;;;4251798;27;20039;-84
2023/09/22 07:45:01;;;;;;;19.63;9.43;;;14.00;99.90;;;;;;4233458;28;20123;-83
2023/09/22 07:47:03;;;;;;;17.27;8.55;;;13.90;99.90;;;;;;4231507;28;20155;-83
2023/09/22 07:49:04;;;;;;;18.70;8.05;;;13.80;99.90;;;;;;4228778;28;20047;-84
2023/09/22 07:51:05;;;;;;;17.35;8.13;;;13.80;99.90;;;;;;4197611;28;20049;-83
2023/09/22 07:53:06;;;;;;;19.85;8.32;;;13.80;99.90;;;;;;4214519;28;20095;-83
2023/09/22 07:55:07;;;;;;;15.35;7.45;;;13.80;99.90;;;;;;4233470;28;20051;-83
2023/09/22 07:57:08;;;;;;;14.85;7.80;;;13.80;99.90;;;;;;4214783;28;20072;-82
2023/09/22 07:59:09;;;;;;;16.60;7.70;;;13.80;99.90;;;;;;4233418;28;20047;-83
2023/09/22 08:01:15;;;;;;;18.38;8.02;;;13.70;99.90;;;;;;4233799;28;20067;-83
2023/09/22 08:03:18;;;;;;;16.48;8.73;;;13.80;99.90;;;;;;4232949;28;20047;-83
2023/09/22 08:05:20;;;;;;;17.48;8.73;;;13.80;99.90;;;;;;4218602;28;20047;-83
2023/09/22 08:07:22;;;;;;;18.55;8.40;;;13.80;99.90;;;;;;4249907;27;20043;-83
2023/09/22 08:09:23;;;;;;;19.77;8.27;;;13.80;99.90;;;;;;4214806;28;20102;-83
2023/09/22 08:11:23;;;;;;;14.05;7.72;;;13.70;99.90;;;;;;4250061;27;20082;-83
2023/09/22 08:13:24;;;;;;;21.95;8.43;;;13.80;99.90;;;;;;4250085;27;20046;-84
2023/09/22 08:15:26;;;;;;;16.70;8.27;;;13.80;99.90;;;;;;4251179;27;20387;-84
2023/09/22 08:17:27;;;;;;;18.10;8.32;;;13.80;99.90;;;;;;4251101;27;20096;-84
2023/09/22 08:19:28;;;;;;;15.60;7.97;;;13.80;99.90;;;;;;4232024;28;20492;-84
2023/09/22 08:21:28;;;;;;;15.20;7.78;;;13.80;99.90;;;;;;4250545;27;20051;-84
2023/09/22 08:23:29;;;;;;;14.82;7.78;;;13.90;99.90;;;;;;4232069;28;20039;-84
2023/09/22 08:25:30;;;;;;;16.75;8.20;;;13.80;99.90;;;;;;4250036;27;20043;-84
2023/09/22 08:27:32;;;;;;;15.35;7.28;;;13.80;99.90;;;;;;4231985;28;20035;-84
2023/09/22 08:29:33;;;;;;;15.43;6.78;;;12.80;99.90;;;;;;4250777;27;20039;-84
2023/09/22 08:31:35;;;;;;;11.70;6.10;;;13.90;99.90;;;;;;4250925;27;20402;-84
2023/09/22 08:33:38;;;;;;;17.13;7.00;;;13.90;99.90;;;;;;4249909;27;20467;-84
2023/09/22 08:35:40;;;;;;;15.38;6.47;;;13.90;99.90;;;;;;4231476;28;20048;-84
2023/09/22 08:37:42;;;;;;;13.25;6.57;;;13.90;99.90;;;;;;4214866;28;20048;-84
2023/09/22 08:39:44;;;;;;;14.30;6.95;;;14.00;99.90;;;;;;4230865;28;20083;-84
2023/09/22 08:41:45;;;;;;;14.98;6.38;;;14.00;99.90;;;;;;4214292;28;20052;-84
2023/09/22 08:43:46;;;;;;;10.65;6.47;;;14.10;99.90;;;;;;4230945;28;20127;-84
2023/09/22 08:45:53;;;;;;;11.48;6.22;;;14.10;99.90;;;;;;4248620;27;20039;-84
2023/09/22 08:47:54;;;;;;;13.27;7.32;;;14.10;99.90;;;;;;4231913;28;20090;-84
2023/09/22 08:49:55;;;;;;;15.57;6.57;;;14.10;99.90;;;;;;4249904;27;20056;-85
2023/09/22 08:51:56;;;;;;;14.77;6.32;;;14.20;99.90;;;;;;4232695;28;20044;-83
2023/09/22 08:53:57;;;;;;;12.52;6.47;;;14.20;99.90;;;;;;4250369;27;20039;-84
2023/09/22 08:55:58;;;;;;;9.10;6.10;;;14.20;99.90;;;;;;4231880;28;20109;-84
2023/09/22 08:57:59;;;;;;;14.88;6.53;;;14.20;99.90;;;;;;4249654;27;20542;-84
2023/09/22 09:00:10;;;;;;;17.83;7.40;;;14.20;99.90;;;;;;4250353;27;20072;-84
2023/09/22 09:02:13;;;;;;;;;;;14.20;99.90;;;;;;4250697;27;20063;-84
2023/09/22 09:04:40;;;;;;;9.65;5.30;;;14.30;99.90;;;;;;4233034;28;19927;-84
2023/09/22 09:06:46;;;;;;;14.25;6.18;;;14.30;99.90;;;;;;4245642;27;20062;-84
2023/09/22 09:09:12;;;;;;;9.90;5.25;;;14.20;99.90;;;;;;4220621;28;20044;-85
2023/09/22 09:11:14;;;;;;;8.43;5.13;;;14.30;99.90;;;;;;4236398;28;20618;-84
2023/09/22 09:13:18;;;;;;;12.68;4.72;;;14.30;99.90;;;;;;4254385;27;20475;-85
2023/09/22 09:15:28;;;;;;;9.65;5.05;;;14.40;99.90;;;;;;4255020;27;20480;-84
2023/09/22 09:17:29;;;;;;;10.90;5.13;;;14.50;99.90;;;;;;4214834;28;20064;-84
2023/09/22 09:19:33;;;;;;;9.07;4.47;;;14.70;99.90;;;;;;4250201;27;20414;-84
2023/09/22 09:21:35;;;;;;;10.80;4.72;;;14.80;99.90;;;;;;4233128;28;20448;-84
2023/09/22 09:23:53;;;;;;;6.57;4.10;;;14.80;99.90;;;;;;4250675;27;20074;-84
2023/09/22 09:25:54;;;;;;;7.82;4.32;;;14.40;99.90;;;;;;4231944;28;20492;-84
2023/09/22 09:28:02;;;;;;;9.48;3.95;;;14.70;99.90;;;;;;4250460;27;20043;-84
2023/09/22 09:30:08;;;;;;;7.18;3.50;;;14.90;99.90;;;;;;4249997;27;20049;-84
2023/09/22 09:32:10;;;;;;;6.25;3.30;;;14.90;99.90;;;;;;4248610;27;20057;-84
2023/09/22 09:34:10;;;;;;;9.48;3.70;;;14.90;99.90;;;;;;4250209;27;20088;-84
2023/09/22 09:36:16;;;;;;;5.97;3.70;;;14.90;99.90;;;;;;4250440;27;20080;-84
2023/09/22 09:38:17;;;;;;;6.25;3.40;;;15.10;99.90;;;;;;4231265;28;20101;-84
2023/09/22 09:40:22;;;;;;;7.10;3.13;;;15.20;99.90;;;;;;4248454;27;20054;-84
2023/09/22 09:42:24;;;;;;;5.18;3.17;;;15.20;99.90;;;;;;4213308;28;20052;-84
2023/09/22 09:44:26;;;;;;;5.90;3.08;;;15.30;99.90;;;;;;4248568;27;20035;-85
2023/09/22 09:46:28;;;;;;;6.72;2.83;;;15.50;99.90;;;;;;4249222;27;20043;-84
2023/09/22 09:48:31;;;;;;;4.40;2.80;;;15.70;99.90;;;;;;4248505;27;20123;-84
2023/09/22 09:50:35;;;;;;;5.57;2.67;;;16.20;99.90;;;;;;4248545;27;20449;-84
2023/09/22 09:52:54;;;;;;;7.80;2.20;;;16.60;99.90;;;;;;4248865;27;20082;-84
2023/09/22 09:55:11;;;;;;;4.95;2.70;;;16.60;99.90;;;;;;4213920;28;20120;-84
2023/09/22 09:57:12;;;;;;;4.05;2.35;;;16.60;99.90;;;;;;4230639;28;20075;-84
2023/09/22 09:59:14;;;;;;;3.55;2.33;;;16.50;99.90;;;;;;4213232;28;20428;-84
2023/09/22 10:01:17;;;;;;;4.85;2.40;;;16.30;99.90;;;;;;4248866;28;20039;-84
2023/09/22 10:03:21;;;;;;;6.47;2.08;;;16.30;99.90;;;;;;4231373;28;20051;-84
2023/09/22 10:05:22;;;;;;;5.00;2.03;;;16.20;99.90;;;;;;4248570;28;20035;-84
2023/09/22 10:07:24;;;;;;;2.50;2.20;;;16.10;99.90;;;;;;4248144;28;20051;-84
2023/09/22 10:09:25;;;;;;;1.67;1.52;;;16.00;99.90;;;;;;4229802;28;20056;-84
2023/09/22 10:11:27;;;;;;;3.53;1.50;;;16.00;99.90;;;;;;4233196;28;20053;-84
2023/09/22 10:13:28;;;;;;;3.58;1.55;;;16.00;99.90;;;;;;4232897;28;20073;-84
2023/09/22 10:15:50;;;;;;;3.10;1.50;;;16.10;99.90;;;;;;4251846;27;20035;-83
2023/09/22 10:17:55;;;;;;;6.05;1.90;;;16.60;99.90;;;;;;4234427;28;20048;-83
2023/09/22 10:19:59;;;;;;;4.32;1.65;;;17.10;99.90;;;;;;4217152;28;20044;-84
2023/09/22 10:22:13;;;;;;;3.72;1.30;;;17.50;99.90;;;;;;4233839;28;20112;-84
2023/09/22 10:24:23;;;;;;;2.67;1.10;;;17.80;99.90;;;;;;4233274;28;20488;-84
2023/09/22 10:26:24;;;;;;;1.63;0.98;;;18.20;99.90;;;;;;4233589;28;20501;-84